createdAt,value
2018-01-07T00:00:00.841Z,1012.74
2018-01-07T00:01:00.831Z,1012.79
2018-01-07T00:02:00.822Z,1012.80
2018-01-07T00:03:00.818Z,1012.85
2018-01-07T00:04:00.809Z,1012.90
2018-01-07T00:05:00.801Z,1012.88
2018-01-07T00:06:00.790Z,1012.86
2018-01-07T00:07:00.778Z,1012.93
2018-01-07T00:08:00.769Z,1012.95
2018-01-07T00:09:00.761Z,1012.97
2018-01-07T00:10:00.751Z,1012.85
2018-01-07T00:11:00.742Z,1012.96
2018-01-07T00:12:00.734Z,1012.98
2018-01-07T00:13:00.726Z,1012.93
2018-01-07T00:14:00.715Z,1012.98
2018-01-07T00:15:00.710Z,1012.96
2018-01-07T00:16:00.703Z,1012.90
2018-01-07T00:17:00.694Z,1012.97
2018-01-07T00:18:00.685Z,1012.96
2018-01-07T00:19:00.675Z,1013.03
2018-01-07T00:20:00.666Z,1013.06
2018-01-07T00:21:00.657Z,1013.03
2018-01-07T00:22:00.649Z,1013.04
2018-01-07T00:23:00.638Z,1013.15
2018-01-07T00:24:00.626Z,1013.09
2018-01-07T00:25:00.617Z,1013.09
2018-01-07T00:26:00.608Z,1013.10
2018-01-07T00:27:00.600Z,1013.12
2018-01-07T00:28:00.590Z,1013.15
2018-01-07T00:29:00.581Z,1013.12
2018-01-07T00:30:00.575Z,1013.23
2018-01-07T00:31:00.567Z,1013.21
2018-01-07T00:32:00.558Z,1013.15
2018-01-07T00:33:00.551Z,1013.26
2018-01-07T00:34:00.540Z,1013.25
2018-01-07T00:35:00.532Z,1013.26
2018-01-07T00:36:00.523Z,1013.26
2018-01-07T00:37:00.514Z,1013.26
2018-01-07T00:38:00.503Z,1013.29
2018-01-07T00:39:00.490Z,1013.28
2018-01-07T00:40:00.487Z,1013.29
2018-01-07T00:41:00.473Z,1013.31
2018-01-07T00:42:00.464Z,1013.35
2018-01-07T00:43:00.454Z,1013.27
2018-01-07T00:44:00.447Z,1013.33
2018-01-07T00:45:00.437Z,1013.35
2018-01-07T00:46:00.427Z,1013.44
2018-01-07T00:47:00.422Z,1013.43
2018-01-07T00:48:00.413Z,1013.45
2018-01-07T00:49:00.404Z,1013.50
2018-01-07T00:50:00.393Z,1013.47
2018-01-07T00:51:00.385Z,1013.52
2018-01-07T00:52:00.376Z,1013.51
2018-01-07T00:53:00.368Z,1013.61
2018-01-07T00:54:00.357Z,1013.57
2018-01-07T00:55:00.344Z,1013.54
2018-01-07T00:56:00.335Z,1013.55
2018-01-07T00:57:00.328Z,1013.56
2018-01-07T00:58:00.322Z,1013.64
2018-01-07T00:59:00.308Z,1013.68
2018-01-07T01:00:00.299Z,1013.68
2018-01-07T01:01:00.290Z,1013.72
2018-01-07T01:02:00.281Z,1013.66
2018-01-07T01:03:00.276Z,1013.72
2018-01-07T01:04:00.266Z,1013.76
2018-01-07T01:05:00.258Z,1013.76
2018-01-07T01:06:00.248Z,1013.77
2018-01-07T01:07:00.234Z,1013.78
2018-01-07T01:08:00.226Z,1013.88
2018-01-07T01:09:00.216Z,1013.87
2018-01-07T01:10:00.207Z,1013.90
2018-01-07T01:11:00.202Z,1013.89
2018-01-07T01:12:00.195Z,1013.91
2018-01-07T01:13:00.187Z,1013.96
2018-01-07T01:14:00.175Z,1013.92
2018-01-07T01:15:00.167Z,1013.97
2018-01-07T01:16:00.158Z,1013.98
2018-01-07T01:17:00.148Z,1014.05
2018-01-07T01:18:00.139Z,1014.00
2018-01-07T01:19:00.125Z,1013.92
2018-01-07T01:20:00.116Z,1014.09
2018-01-07T01:21:00.108Z,1014.08
2018-01-07T01:22:00.101Z,1014.15
2018-01-07T01:23:00.089Z,1014.13
2018-01-07T01:24:00.081Z,1014.16
2018-01-07T01:25:00.071Z,1014.22
2018-01-07T01:26:00.063Z,1014.21
2018-01-07T01:27:00.058Z,1014.19
2018-01-07T01:28:00.050Z,1014.21
2018-01-07T01:29:00.038Z,1014.16
2018-01-07T01:30:00.039Z,1014.20
2018-01-07T01:31:00.021Z,1014.24
2018-01-07T01:32:00.013Z,1014.24
2018-01-07T01:33:00.003Z,1014.26
2018-01-07T01:33:59.992Z,1014.28
2018-01-07T01:34:59.978Z,1014.30
2018-01-07T01:35:59.970Z,1014.29
2018-01-07T01:36:59.960Z,1014.34
2018-01-07T01:37:59.950Z,1014.39
2018-01-07T01:38:59.942Z,1014.36
2018-01-07T01:39:59.932Z,1014.41
2018-01-07T01:40:59.923Z,1014.35
2018-01-07T01:41:59.915Z,1014.44
2018-01-07T01:42:59.911Z,1014.53
2018-01-07T01:43:59.900Z,1014.49
2018-01-07T01:44:59.891Z,1014.56
2018-01-07T01:45:59.881Z,1014.55
2018-01-07T01:46:59.872Z,1014.57
2018-01-07T01:47:59.864Z,1014.58
2018-01-07T01:48:59.854Z,1014.62
2018-01-07T01:49:59.844Z,1014.60
2018-01-07T01:50:59.831Z,1014.66
2018-01-07T01:51:59.822Z,1014.67
2018-01-07T01:52:59.813Z,1014.66
2018-01-07T01:53:59.803Z,1014.59
2018-01-07T01:54:59.794Z,1014.62
2018-01-07T01:55:59.784Z,1014.62
2018-01-07T01:56:59.776Z,1014.62
2018-01-07T01:57:59.765Z,1014.63
2018-01-07T01:58:59.760Z,1014.69
2018-01-07T01:59:59.750Z,1014.67
2018-01-07T02:00:59.743Z,1014.65
2018-01-07T02:01:59.732Z,1014.67
2018-01-07T02:02:59.722Z,1014.66
2018-01-07T02:03:59.714Z,1014.74
2018-01-07T02:04:59.707Z,1014.69
2018-01-07T02:05:59.694Z,1014.73
2018-01-07T02:06:59.681Z,1014.77
2018-01-07T02:07:59.673Z,1014.76
2018-01-07T02:08:59.664Z,1014.84
2018-01-07T02:09:59.652Z,1014.75
2018-01-07T02:10:59.648Z,1014.77
2018-01-07T02:11:59.639Z,1014.73
2018-01-07T02:12:59.629Z,1014.75
2018-01-07T02:13:59.619Z,1014.78
2018-01-07T02:14:59.606Z,1014.77
2018-01-07T02:15:59.596Z,1014.78
2018-01-07T02:16:59.587Z,1014.80
2018-01-07T02:17:59.577Z,1014.82
2018-01-07T02:18:59.569Z,1014.77
2018-01-07T02:19:59.559Z,1014.81
2018-01-07T02:20:59.550Z,1014.81
2018-01-07T02:21:59.540Z,1014.79
2018-01-07T02:22:59.535Z,1014.83
2018-01-07T02:23:59.529Z,1014.81
2018-01-07T02:24:59.519Z,1014.85
2018-01-07T02:25:59.507Z,1014.81
2018-01-07T02:26:59.497Z,1014.84
2018-01-07T02:27:59.493Z,1014.83
2018-01-07T02:28:59.479Z,1014.81
2018-01-07T02:29:59.469Z,1014.83
2018-01-07T02:30:59.456Z,1014.83
2018-01-07T02:31:59.445Z,1014.92
2018-01-07T02:32:59.436Z,1014.97
2018-01-07T02:33:59.426Z,1014.95
2018-01-07T02:34:59.416Z,1014.98
2018-01-07T02:35:59.407Z,1014.91
2018-01-07T02:36:59.398Z,1014.99
2018-01-07T02:37:59.388Z,1014.92
2018-01-07T02:38:59.385Z,1015.03
2018-01-07T02:39:59.373Z,1015.07
2018-01-07T02:40:59.365Z,1015.03
2018-01-07T02:41:59.354Z,1015.08
2018-01-07T02:42:59.345Z,1015.08
2018-01-07T02:43:59.335Z,1015.08
2018-01-07T02:44:59.326Z,1015.14
2018-01-07T02:45:59.315Z,1015.10
2018-01-07T02:46:59.342Z,1015.20
2018-01-07T02:47:59.293Z,1015.22
2018-01-07T02:48:59.284Z,1015.17
2018-01-07T02:49:59.277Z,1015.23
2018-01-07T02:50:59.264Z,1015.25
2018-01-07T02:51:59.257Z,1015.24
2018-01-07T02:52:59.249Z,1015.21
2018-01-07T02:53:59.235Z,1015.31
2018-01-07T02:54:59.229Z,1015.29
2018-01-07T02:55:59.220Z,1015.25
2018-01-07T02:56:59.211Z,1015.32
2018-01-07T02:57:59.201Z,1015.30
2018-01-07T02:58:59.191Z,1015.25
2018-01-07T02:59:59.182Z,1015.33
2018-01-07T03:00:59.173Z,1015.28
2018-01-07T03:01:59.162Z,1015.32
2018-01-07T03:02:59.149Z,1015.38
2018-01-07T03:03:59.140Z,1015.35
2018-01-07T03:04:59.130Z,1015.35
2018-01-07T03:05:59.120Z,1015.33
2018-01-07T03:06:59.112Z,1015.35
2018-01-07T03:07:59.111Z,1015.35
2018-01-07T03:08:59.093Z,1015.41
2018-01-07T03:09:59.082Z,1015.40
2018-01-07T03:10:59.080Z,1015.46
2018-01-07T03:11:59.068Z,1015.47
2018-01-07T03:12:59.060Z,1015.47
2018-01-07T03:13:59.049Z,1015.56
2018-01-07T03:14:59.040Z,1015.53
2018-01-07T03:15:59.032Z,1015.57
2018-01-07T03:16:59.021Z,1015.56
2018-01-07T03:17:59.011Z,1015.55
2018-01-07T03:18:58.998Z,1015.57
2018-01-07T03:19:58.988Z,1015.55
2018-01-07T03:20:58.979Z,1015.63
2018-01-07T03:21:58.970Z,1015.60
2018-01-07T03:22:58.960Z,1015.56
2018-01-07T03:23:58.951Z,1015.61
2018-01-07T03:24:58.943Z,1015.58
2018-01-07T03:25:58.931Z,1015.64
2018-01-07T03:26:58.927Z,1015.57
2018-01-07T03:27:58.918Z,1015.61
2018-01-07T03:28:58.910Z,1015.57
2018-01-07T03:29:58.898Z,1015.60
2018-01-07T03:30:58.890Z,1015.61
2018-01-07T03:31:58.880Z,1015.54
2018-01-07T03:32:58.871Z,1015.54
2018-01-07T03:33:58.862Z,1015.57
2018-01-07T03:34:58.847Z,1015.58
2018-01-07T03:35:58.838Z,1015.61
2018-01-07T03:36:58.830Z,1015.57
2018-01-07T03:37:58.818Z,1015.57
2018-01-07T03:38:58.809Z,1015.62
2018-01-07T03:39:58.800Z,1015.57
2018-01-07T03:40:58.790Z,1015.64
2018-01-07T03:41:58.781Z,1015.64
2018-01-07T03:42:58.776Z,1015.59
2018-01-07T03:43:58.767Z,1015.55
2018-01-07T03:44:58.758Z,1015.71
2018-01-07T03:45:58.748Z,1015.74
2018-01-07T03:46:58.737Z,1015.55
2018-01-07T03:47:58.730Z,1015.66
2018-01-07T03:48:58.719Z,1015.70
2018-01-07T03:49:58.709Z,1015.69
2018-01-07T03:50:58.696Z,1015.69
2018-01-07T03:51:58.686Z,1015.60
2018-01-07T03:52:58.677Z,1015.64
2018-01-07T03:53:58.669Z,1015.66
2018-01-07T03:54:58.658Z,1015.68
2018-01-07T03:55:58.652Z,1015.72
2018-01-07T03:56:58.640Z,1015.70
2018-01-07T03:57:58.630Z,1015.67
2018-01-07T03:58:58.624Z,1015.74
2018-01-07T03:59:58.616Z,1015.71
2018-01-07T04:00:58.606Z,1015.72
2018-01-07T04:01:58.595Z,1015.81
2018-01-07T04:02:58.586Z,1015.85
2018-01-07T04:03:58.577Z,1015.83
2018-01-07T04:04:58.568Z,1015.87
2018-01-07T04:05:58.557Z,1015.85
2018-01-07T04:06:58.544Z,1015.97
2018-01-07T04:07:58.536Z,1015.92
2018-01-07T04:08:58.526Z,1015.93
2018-01-07T04:09:58.515Z,1015.88
2018-01-07T04:10:58.507Z,1015.99
2018-01-07T04:11:58.497Z,1015.89
2018-01-07T04:12:58.488Z,1015.96
2018-01-07T04:13:58.478Z,1015.97
2018-01-07T04:14:58.473Z,1015.82
2018-01-07T04:15:58.464Z,1015.83
2018-01-07T04:16:58.455Z,1015.80
2018-01-07T04:17:58.445Z,1015.85
2018-01-07T04:18:58.431Z,1015.83
2018-01-07T04:19:58.421Z,1015.86
2018-01-07T04:20:58.413Z,1015.87
2018-01-07T04:21:58.402Z,1015.86
2018-01-07T04:22:58.397Z,1015.87
2018-01-07T04:23:58.393Z,1015.85
2018-01-07T04:24:58.378Z,1015.84
2018-01-07T04:25:58.368Z,1015.86
2018-01-07T04:26:58.359Z,1015.87
2018-01-07T04:27:58.349Z,1015.84
2018-01-07T04:28:58.340Z,1015.92
2018-01-07T04:29:58.330Z,1015.80
2018-01-07T04:30:58.335Z,1015.92
2018-01-07T04:31:58.307Z,1015.96
2018-01-07T04:32:58.298Z,1015.96
2018-01-07T04:33:58.288Z,1015.97
2018-01-07T04:34:58.279Z,1016.03
2018-01-07T04:35:58.268Z,1016.05
2018-01-07T04:36:58.260Z,1016.08
2018-01-07T04:37:58.249Z,1016.00
2018-01-07T04:38:58.244Z,1016.02
2018-01-07T04:39:58.234Z,1016.06
2018-01-07T04:40:58.227Z,1016.01
2018-01-07T04:41:58.216Z,1016.06
2018-01-07T04:42:58.206Z,1016.07
2018-01-07T04:43:58.197Z,1016.09
2018-01-07T04:44:58.188Z,1016.11
2018-01-07T04:45:58.177Z,1016.13
2018-01-07T04:46:58.164Z,1016.12
2018-01-07T04:47:58.154Z,1016.22
2018-01-07T04:48:58.148Z,1016.15
2018-01-07T04:49:58.134Z,1016.16
2018-01-07T04:50:58.125Z,1016.16
2018-01-07T04:51:58.116Z,1016.11
2018-01-07T04:52:58.106Z,1016.20
2018-01-07T04:53:58.097Z,1016.20
2018-01-07T04:54:58.091Z,1016.19
2018-01-07T04:55:58.082Z,1016.17
2018-01-07T04:56:58.074Z,1016.18
2018-01-07T04:57:58.062Z,1016.21
2018-01-07T04:58:58.065Z,1016.23
2018-01-07T04:59:58.044Z,1016.23
2018-01-07T05:00:58.035Z,1016.32
2018-01-07T05:01:58.024Z,1016.33
2018-01-07T05:02:58.010Z,1016.24
2018-01-07T05:03:58.001Z,1016.27
2018-01-07T05:04:57.991Z,1016.28
2018-01-07T05:05:57.981Z,1016.28
2018-01-07T05:06:57.972Z,1016.36
2018-01-07T05:07:57.962Z,1016.34
2018-01-07T05:08:57.953Z,1016.32
2018-01-07T05:09:57.949Z,1016.40
2018-01-07T05:10:57.937Z,1016.44
2018-01-07T05:11:57.930Z,1016.48
2018-01-07T05:12:57.920Z,1016.49
2018-01-07T05:13:57.908Z,1016.55
2018-01-07T05:14:57.898Z,1016.45
2018-01-07T05:15:57.890Z,1016.64
2018-01-07T05:16:57.881Z,1016.38
2018-01-07T05:17:57.870Z,1016.56
2018-01-07T05:18:57.858Z,1016.54
2018-01-07T05:19:57.849Z,1016.65
2018-01-07T05:20:57.839Z,1016.57
2018-01-07T05:21:57.828Z,1016.57
2018-01-07T05:22:57.824Z,1016.64
2018-01-07T05:23:57.814Z,1016.65
2018-01-07T05:24:57.804Z,1016.71
2018-01-07T05:25:57.793Z,1016.72
2018-01-07T05:26:57.780Z,1016.72
2018-01-07T05:27:57.772Z,1016.76
2018-01-07T05:28:57.762Z,1016.67
2018-01-07T05:29:57.750Z,1016.71
2018-01-07T05:30:57.740Z,1016.73
2018-01-07T05:31:57.732Z,1016.77
2018-01-07T05:32:57.723Z,1016.72
2018-01-07T05:33:57.712Z,1016.77
2018-01-07T05:34:57.706Z,1016.81
2018-01-07T05:35:57.698Z,1016.87
2018-01-07T05:36:57.688Z,1016.75
2018-01-07T05:37:57.679Z,1016.78
2018-01-07T05:38:57.669Z,1016.80
2018-01-07T05:39:57.659Z,1016.82
2018-01-07T05:40:57.648Z,1016.84
2018-01-07T05:41:57.638Z,1016.89
2018-01-07T05:42:57.625Z,1016.76
2018-01-07T05:43:57.616Z,1016.81
2018-01-07T05:44:57.606Z,1016.89
2018-01-07T05:45:57.595Z,1016.89
2018-01-07T05:46:57.586Z,1016.90
2018-01-07T05:47:57.577Z,1016.96
2018-01-07T05:48:57.567Z,1016.92
2018-01-07T05:49:57.557Z,1016.92
2018-01-07T05:50:57.552Z,1017.02
2018-01-07T05:51:57.542Z,1017.05
2018-01-07T05:52:57.533Z,1016.96
2018-01-07T05:53:57.522Z,1017.08
2018-01-07T05:54:57.512Z,1017.16
2018-01-07T05:55:57.504Z,1017.05
2018-01-07T05:56:57.495Z,1017.12
2018-01-07T05:57:57.484Z,1017.03
2018-01-07T05:58:57.471Z,1017.04
2018-01-07T05:59:57.460Z,1017.07
2018-01-07T06:00:57.450Z,1017.06
2018-01-07T06:01:57.441Z,1017.03
2018-01-07T06:02:57.431Z,1017.12
2018-01-07T06:03:57.421Z,1017.08
2018-01-07T06:04:57.412Z,1017.09
2018-01-07T06:05:57.402Z,1017.12
2018-01-07T06:06:57.397Z,1017.23
2018-01-07T06:07:57.387Z,1017.12
2018-01-07T06:08:57.378Z,1017.20
2018-01-07T06:09:57.367Z,1017.20
2018-01-07T06:10:57.358Z,1017.16
2018-01-07T06:11:57.348Z,1017.19
2018-01-07T06:12:57.340Z,1017.22
2018-01-07T06:13:57.329Z,1017.29
2018-01-07T06:14:57.315Z,1017.28
2018-01-07T06:15:57.306Z,1017.31
2018-01-07T06:16:57.313Z,1017.25
2018-01-07T06:17:57.286Z,1017.15
2018-01-07T06:18:57.276Z,1017.23
2018-01-07T06:19:57.267Z,1017.21
2018-01-07T06:20:57.259Z,1017.26
2018-01-07T06:21:57.247Z,1017.36
2018-01-07T06:22:57.242Z,1017.30
2018-01-07T06:23:57.233Z,1017.30
2018-01-07T06:24:57.224Z,1017.37
2018-01-07T06:25:57.214Z,1017.41
2018-01-07T06:26:57.200Z,1017.34
2018-01-07T06:27:57.190Z,1017.44
2018-01-07T06:28:57.180Z,1017.52
2018-01-07T06:29:57.169Z,1017.40
2018-01-07T06:30:57.164Z,1017.51
2018-01-07T06:31:57.156Z,1017.62
2018-01-07T06:32:57.146Z,1017.55
2018-01-07T06:33:57.135Z,1017.56
2018-01-07T06:34:57.127Z,1017.61
2018-01-07T06:35:57.116Z,1017.55
2018-01-07T06:36:57.106Z,1017.71
2018-01-07T06:37:57.096Z,1017.58
2018-01-07T06:38:57.083Z,1017.58
2018-01-07T06:39:57.073Z,1017.69
2018-01-07T06:40:57.064Z,1017.59
2018-01-07T06:41:57.054Z,1017.59
2018-01-07T06:42:57.046Z,1017.76
2018-01-07T06:43:57.036Z,1017.64
2018-01-07T06:44:57.025Z,1017.63
2018-01-07T06:45:57.015Z,1017.72
2018-01-07T06:46:57.011Z,1017.75
2018-01-07T06:47:56.999Z,1017.70
2018-01-07T06:48:56.990Z,1017.74
2018-01-07T06:49:56.980Z,1017.78
2018-01-07T06:50:56.971Z,1017.84
2018-01-07T06:51:56.960Z,1017.92
2018-01-07T06:52:56.952Z,1017.74
2018-01-07T06:53:56.940Z,1017.81
2018-01-07T06:54:56.927Z,1017.88
2018-01-07T06:55:56.918Z,1017.87
2018-01-07T06:56:56.908Z,1017.88
2018-01-07T06:57:56.898Z,1017.93
2018-01-07T06:58:56.889Z,1018.00
2018-01-07T06:59:56.878Z,1017.98
2018-01-07T07:00:56.869Z,1017.94
2018-01-07T07:01:56.859Z,1017.98
2018-01-07T07:02:56.854Z,1018.01
2018-01-07T07:03:56.844Z,1018.04
2018-01-07T07:04:56.835Z,1018.10
2018-01-07T07:05:56.828Z,1018.00
2018-01-07T07:06:56.815Z,1018.11
2018-01-07T07:07:56.805Z,1018.13
2018-01-07T07:08:56.797Z,1018.07
2018-01-07T07:09:56.786Z,1018.19
2018-01-07T07:10:56.772Z,1018.15
2018-01-07T07:11:56.762Z,1018.18
2018-01-07T07:12:56.753Z,1018.24
2018-01-07T07:13:56.744Z,1018.33
2018-01-07T07:14:56.734Z,1018.26
2018-01-07T07:15:56.725Z,1018.36
2018-01-07T07:16:56.715Z,1018.33
2018-01-07T07:17:56.704Z,1018.41
2018-01-07T07:18:56.699Z,1018.44
2018-01-07T07:19:56.689Z,1018.42
2018-01-07T07:20:56.681Z,1018.48
2018-01-07T07:21:56.670Z,1018.42
2018-01-07T07:22:56.660Z,1018.40
2018-01-07T07:23:56.653Z,1018.57
2018-01-07T07:24:56.642Z,1018.52
2018-01-07T07:25:56.631Z,1018.58
2018-01-07T07:26:56.619Z,1018.59
2018-01-07T07:27:56.608Z,1018.56
2018-01-07T07:28:56.598Z,1018.57
2018-01-07T07:29:56.588Z,1018.64
2018-01-07T07:30:56.578Z,1018.64
2018-01-07T07:31:56.569Z,1018.59
2018-01-07T07:32:56.560Z,1018.67
2018-01-07T07:33:56.549Z,1018.73
2018-01-07T07:34:56.545Z,1018.73
2018-01-07T07:35:56.535Z,1018.78
2018-01-07T07:36:56.525Z,1018.74
2018-01-07T07:37:56.515Z,1018.83
2018-01-07T07:38:56.505Z,1018.87
2018-01-07T07:39:56.496Z,1018.91
2018-01-07T07:40:56.486Z,1018.86
2018-01-07T07:41:56.476Z,1018.92
2018-01-07T07:42:56.463Z,1018.97
2018-01-07T07:43:56.453Z,1018.96
2018-01-07T07:44:56.443Z,1018.98
2018-01-07T07:45:56.433Z,1019.10
2018-01-07T07:46:56.424Z,1019.09
2018-01-07T07:47:56.415Z,1019.12
2018-01-07T07:48:56.406Z,1019.05
2018-01-07T07:49:56.395Z,1019.17
2018-01-07T07:50:56.390Z,1019.18
2018-01-07T07:51:56.380Z,1019.19
2018-01-07T07:52:56.372Z,1019.18
2018-01-07T07:53:56.360Z,1019.22
2018-01-07T07:54:56.351Z,1019.17
2018-01-07T07:55:56.342Z,1019.24
2018-01-07T07:56:56.332Z,1019.24
2018-01-07T07:57:56.321Z,1019.21
2018-01-07T07:58:56.309Z,1019.20
2018-01-07T07:59:56.298Z,1019.25
2018-01-07T08:00:56.291Z,1019.20
2018-01-07T08:01:56.278Z,1019.18
2018-01-07T08:02:56.270Z,1019.23
2018-01-07T08:03:56.260Z,1019.13
2018-01-07T08:04:56.253Z,1019.13
2018-01-07T08:05:56.240Z,1019.19
2018-01-07T08:06:56.236Z,1019.15
2018-01-07T08:07:56.225Z,1019.12
2018-01-07T08:08:56.216Z,1019.17
2018-01-07T08:09:56.206Z,1019.18
2018-01-07T08:10:56.197Z,1019.15
2018-01-07T08:11:56.189Z,1019.15
2018-01-07T08:12:56.177Z,1019.21
2018-01-07T08:13:56.170Z,1019.13
2018-01-07T08:14:56.153Z,1019.11
2018-01-07T08:15:56.144Z,1019.11
2018-01-07T08:16:56.134Z,1019.13
2018-01-07T08:17:56.125Z,1019.15
2018-01-07T08:18:56.115Z,1019.08
2018-01-07T08:19:56.105Z,1019.14
2018-01-07T08:20:56.096Z,1019.11
2018-01-07T08:21:56.085Z,1019.25
2018-01-07T08:22:56.080Z,1019.22
2018-01-07T08:23:56.070Z,1019.24
2018-01-07T08:24:56.061Z,1019.31
2018-01-07T08:25:56.050Z,1019.33
2018-01-07T08:26:56.041Z,1019.36
2018-01-07T08:27:56.031Z,1019.41
2018-01-07T08:28:56.022Z,1019.38
2018-01-07T08:29:56.015Z,1019.45
2018-01-07T08:30:55.998Z,1019.47
2018-01-07T08:31:55.992Z,1019.46
2018-01-07T08:32:55.983Z,1019.45
2018-01-07T08:33:55.967Z,1019.52
2018-01-07T08:34:55.963Z,1019.58
2018-01-07T08:35:55.953Z,1019.44
2018-01-07T08:36:55.943Z,1019.58
2018-01-07T08:37:55.934Z,1019.66
2018-01-07T08:38:55.922Z,1019.57
2018-01-07T08:39:55.910Z,1019.61
2018-01-07T08:40:55.901Z,1019.61
2018-01-07T08:41:55.890Z,1019.68
2018-01-07T08:42:55.879Z,1019.65
2018-01-07T08:43:55.870Z,1019.75
2018-01-07T08:44:55.861Z,1019.77
2018-01-07T08:45:55.850Z,1019.81
2018-01-07T08:46:55.845Z,1019.82
2018-01-07T08:47:55.835Z,1019.83
2018-01-07T08:48:55.826Z,1019.76
2018-01-07T08:49:55.819Z,1019.88
2018-01-07T08:50:55.806Z,1019.85
2018-01-07T08:51:55.795Z,1019.91
2018-01-07T08:52:55.786Z,1019.90
2018-01-07T08:53:55.775Z,1019.91
2018-01-07T08:54:55.761Z,1019.94
2018-01-07T08:55:55.751Z,1019.92
2018-01-07T08:56:55.742Z,1019.95
2018-01-07T08:57:55.731Z,1019.95
2018-01-07T08:58:55.722Z,1019.99
2018-01-07T08:59:55.712Z,1019.95
2018-01-07T09:00:55.702Z,1019.93
2018-01-07T09:01:55.697Z,1020.05
2018-01-07T09:02:55.686Z,1019.92
2018-01-07T09:03:55.677Z,1020.01
2018-01-07T09:04:55.667Z,1020.04
2018-01-07T09:05:55.656Z,1020.03
2018-01-07T09:06:55.647Z,1020.12
2018-01-07T09:07:55.638Z,1020.12
2018-01-07T09:08:55.627Z,1020.09
2018-01-07T09:09:55.616Z,1020.13
2018-01-07T09:10:55.604Z,1020.13
2018-01-07T09:11:55.593Z,1020.09
2018-01-07T09:12:55.583Z,1020.10
2018-01-07T09:13:55.572Z,1020.12
2018-01-07T09:14:55.565Z,1020.15
2018-01-07T09:15:55.554Z,1020.16
2018-01-07T09:16:55.544Z,1020.18
2018-01-07T09:17:55.532Z,1020.23
2018-01-07T09:18:55.527Z,1020.21
2018-01-07T09:19:55.518Z,1020.27
2018-01-07T09:20:55.508Z,1020.32
2018-01-07T09:21:55.496Z,1020.32
2018-01-07T09:22:55.490Z,1020.42
2018-01-07T09:23:55.478Z,1020.43
2018-01-07T09:24:55.469Z,1020.46
2018-01-07T09:25:55.457Z,1020.59
2018-01-07T09:26:55.446Z,1020.54
2018-01-07T09:27:55.435Z,1020.52
2018-01-07T09:28:55.426Z,1020.53
2018-01-07T09:29:55.418Z,1020.55
2018-01-07T09:30:55.404Z,1020.61
2018-01-07T09:31:55.395Z,1020.53
2018-01-07T09:32:55.385Z,1020.59
2018-01-07T09:33:55.374Z,1020.61
2018-01-07T09:34:55.370Z,1020.53
2018-01-07T09:35:55.360Z,1020.53
2018-01-07T09:36:55.351Z,1020.69
2018-01-07T09:37:55.341Z,1020.64
2018-01-07T09:38:55.333Z,1020.60
2018-01-07T09:39:55.316Z,1020.74
2018-01-07T09:40:55.307Z,1020.77
2018-01-07T09:41:55.296Z,1020.73
2018-01-07T09:42:55.292Z,1020.80
2018-01-07T09:43:55.282Z,1020.76
2018-01-07T09:44:55.274Z,1020.91
2018-01-07T09:45:55.263Z,1020.91
2018-01-07T09:46:55.252Z,1021.10
2018-01-07T09:47:55.242Z,1020.96
2018-01-07T09:48:55.233Z,1020.98
2018-01-07T09:49:55.224Z,1020.99
2018-01-07T09:50:55.208Z,1020.99
2018-01-07T09:51:55.200Z,1020.97
2018-01-07T09:52:55.223Z,1020.86
2018-01-07T09:53:55.179Z,1020.99
2018-01-07T09:54:55.171Z,1020.89
2018-01-07T09:55:55.160Z,1020.85
2018-01-07T09:56:55.151Z,1020.83
2018-01-07T09:57:55.141Z,1020.87
2018-01-07T09:58:55.135Z,1020.87
2018-01-07T09:59:55.126Z,1020.88
2018-01-07T10:00:55.116Z,1020.85
2018-01-07T10:01:55.107Z,1020.88
2018-01-07T10:02:55.097Z,1020.89
2018-01-07T10:03:55.088Z,1020.93
2018-01-07T10:04:55.079Z,1020.97
2018-01-07T10:05:55.068Z,1021.01
2018-01-07T10:06:55.054Z,1021.06
2018-01-07T10:07:55.046Z,1021.07
2018-01-07T10:08:55.072Z,1021.04
2018-01-07T10:09:55.026Z,1021.07
2018-01-07T10:10:55.023Z,1021.01
2018-01-07T10:11:55.007Z,1021.06
2018-01-07T10:12:54.998Z,1021.01
2018-01-07T10:13:54.987Z,1021.07
2018-01-07T10:14:54.983Z,1021.11
2018-01-07T10:15:54.973Z,1021.11
2018-01-07T10:16:54.964Z,1020.99
2018-01-07T10:17:54.953Z,1021.13
2018-01-07T10:18:54.944Z,1021.15
2018-01-07T10:19:54.935Z,1021.12
2018-01-07T10:20:54.925Z,1021.15
2018-01-07T10:21:54.916Z,1021.11
2018-01-07T10:22:54.902Z,1021.10
2018-01-07T10:23:54.894Z,1021.18
2018-01-07T10:24:54.884Z,1021.11
2018-01-07T10:25:54.876Z,1021.19
2018-01-07T10:26:54.864Z,1021.22
2018-01-07T10:27:54.855Z,1021.21
2018-01-07T10:28:54.846Z,1021.23
2018-01-07T10:29:54.836Z,1021.28
2018-01-07T10:30:54.831Z,1021.33
2018-01-07T10:31:54.823Z,1021.29
2018-01-07T10:32:54.813Z,1021.23
2018-01-07T10:33:54.804Z,1021.28
2018-01-07T10:34:54.794Z,1021.25
2018-01-07T10:35:54.786Z,1021.32
2018-01-07T10:36:54.778Z,1021.26
2018-01-07T10:37:54.766Z,1021.30
2018-01-07T10:38:54.754Z,1021.30
2018-01-07T10:39:54.744Z,1021.33
2018-01-07T10:40:54.734Z,1021.31
2018-01-07T10:41:54.726Z,1021.28
2018-01-07T10:42:54.720Z,1021.28
2018-01-07T10:43:54.712Z,1021.30
2018-01-07T10:44:54.701Z,1021.20
2018-01-07T10:45:54.693Z,1021.20
2018-01-07T10:46:54.681Z,1021.34
2018-01-07T10:47:54.669Z,1021.29
2018-01-07T10:48:54.660Z,1021.25
2018-01-07T10:49:54.653Z,1021.22
2018-01-07T10:50:54.645Z,1021.27
2018-01-07T10:51:54.633Z,1021.17
2018-01-07T10:52:54.623Z,1021.20
2018-01-07T10:53:54.613Z,1021.14
2018-01-07T10:54:54.610Z,1021.14
2018-01-07T10:55:54.601Z,1021.15
2018-01-07T10:56:54.591Z,1021.08
2018-01-07T10:57:54.581Z,1021.19
2018-01-07T10:58:54.572Z,1021.21
2018-01-07T10:59:54.563Z,1021.13
2018-01-07T11:00:54.555Z,1021.05
2018-01-07T11:01:54.545Z,1021.17
2018-01-07T11:02:54.531Z,1021.08
2018-01-07T11:03:54.522Z,1021.08
2018-01-07T11:04:54.516Z,1021.03
2018-01-07T11:05:54.504Z,1021.05
2018-01-07T11:06:54.500Z,1021.06
2018-01-07T11:07:54.485Z,1021.06
2018-01-07T11:08:54.476Z,1021.05
2018-01-07T11:09:54.466Z,1021.09
2018-01-07T11:10:54.462Z,1021.00
2018-01-07T11:11:54.455Z,1021.00
2018-01-07T11:12:54.444Z,1021.06
2018-01-07T11:13:54.435Z,1021.11
2018-01-07T11:14:54.426Z,1020.96
2018-01-07T11:15:54.418Z,1021.12
2018-01-07T11:16:54.410Z,1021.09
2018-01-07T11:17:54.405Z,1021.13
2018-01-07T11:18:54.387Z,1021.11
2018-01-07T11:19:54.378Z,1021.20
2018-01-07T11:20:54.369Z,1021.09
2018-01-07T11:21:54.358Z,1021.15
2018-01-07T11:22:54.351Z,1021.06
2018-01-07T11:23:54.341Z,1021.15
2018-01-07T11:24:54.332Z,1021.13
2018-01-07T11:25:54.323Z,1021.15
2018-01-07T11:26:54.317Z,1021.13
2018-01-07T11:27:54.308Z,1021.07
2018-01-07T11:28:54.300Z,1021.14
2018-01-07T11:29:54.291Z,1021.05
2018-01-07T11:30:54.282Z,1021.15
2018-01-07T11:31:54.272Z,1021.03
2018-01-07T11:32:54.264Z,1021.12
2018-01-07T11:33:54.256Z,1021.06
2018-01-07T11:34:54.240Z,1021.04
2018-01-07T11:35:54.232Z,1021.16
2018-01-07T11:36:54.224Z,1021.13
2018-01-07T11:37:54.214Z,1021.22
2018-01-07T11:38:54.205Z,1021.14
2018-01-07T11:39:54.197Z,1021.06
2018-01-07T11:40:54.188Z,1021.05
2018-01-07T11:41:54.178Z,1021.15
2018-01-07T11:42:54.175Z,1021.17
2018-01-07T11:43:54.166Z,1021.12
2018-01-07T11:44:54.156Z,1021.11
2018-01-07T11:45:54.148Z,1021.17
2018-01-07T11:46:54.134Z,1021.12
2018-01-07T11:47:54.125Z,1021.12
2018-01-07T11:48:54.117Z,1021.21
2018-01-07T11:49:54.106Z,1021.05
2018-01-07T11:50:54.104Z,1021.09
2018-01-07T11:51:54.150Z,1021.07
2018-01-07T11:52:54.085Z,1021.24
2018-01-07T11:53:54.080Z,1020.99
2018-01-07T11:54:54.067Z,1020.97
2018-01-07T11:55:54.058Z,1020.95
2018-01-07T11:56:54.049Z,1020.99
2018-01-07T11:57:54.041Z,1020.94
2018-01-07T11:58:54.027Z,1020.92
2018-01-07T11:59:54.018Z,1021.00
2018-01-07T12:00:54.010Z,1021.00
2018-01-07T12:01:53.999Z,1020.94
2018-01-07T12:02:53.991Z,1020.89
2018-01-07T12:03:53.982Z,1020.96
2018-01-07T12:04:53.975Z,1020.89